sensor_id;sensor_type;location;lat;lon;timestamp;temperature;humidity
31991;DHT22;18508;49.386;8.370;2024-03-08T00:04:04;6.00;96.80
31991;DHT22;18508;49.386;8.370;2024-03-08T00:06:33;6.00;97.70
31991;DHT22;18508;49.386;8.370;2024-03-08T00:09:02;6.10;99.40
31991;DHT22;18508;49.386;8.370;2024-03-08T00:11:32;6.00;99.90
31991;DHT22;18508;49.386;8.370;2024-03-08T00:14:02;5.90;99.90
31991;DHT22;18508;49.386;8.370;2024-03-08T00:16:34;5.70;99.90
31991;DHT22;18508;49.386;8.370;2024-03-08T00:19:04;5.70;99.90
31991;DHT22;18508;49.386;8.370;2024-03-08T00:24:04;4.70;98.60
31991;DHT22;18508;49.386;8.370;2024-03-08T00:26:35;5.80;99.90
31991;DHT22;18508;49.386;8.370;2024-03-08T00:29:04;5.70;99.90
31991;DHT22;18508;49.386;8.370;2024-03-08T00:31:37;5.30;99.90
31991;DHT22;18508;49.386;8.370;2024-03-08T00:34:06;5.60;99.90
31991;DHT22;18508;49.386;8.370;2024-03-08T00:36:42;5.90;99.90
31991;DHT22;18508;49.386;8.370;2024-03-08T00:39:13;5.50;99.90
31991;DHT22;18508;49.386;8.370;2024-03-08T00:41:45;5.50;99.90
31991;DHT22;18508;49.386;8.370;2024-03-08T00:44:15;5.60;99.90
31991;DHT22;18508;49.386;8.370;2024-03-08T00:46:43;5.30;99.90
31991;DHT22;18508;49.386;8.370;2024-03-08T00:49:18;5.40;99.90
31991;DHT22;18508;49.386;8.370;2024-03-08T00:51:49;5.40;99.90
31991;DHT22;18508;49.386;8.370;2024-03-08T00:54:21;5.30;99.90
31991;DHT22;18508;49.386;8.370;2024-03-08T00:57:01;5.30;99.90
31991;DHT22;18508;49.386;8.370;2024-03-08T00:59:34;5.30;99.90
31991;DHT22;18508;49.386;8.370;2024-03-08T01:02:09;5.30;99.90
31991;DHT22;18508;49.386;8.370;2024-03-08T01:04:38;5.20;99.90
31991;DHT22;18508;49.386;8.370;2024-03-08T01:07:10;5.10;99.90
31991;DHT22;18508;49.386;8.370;2024-03-08T01:09:38;5.20;99.90
31991;DHT22;18508;49.386;8.370;2024-03-08T01:12:11;5.10;99.90
31991;DHT22;18508;49.386;8.370;2024-03-08T01:14:51;5.10;99.90
31991;DHT22;18508;49.386;8.370;2024-03-08T01:17:21;5.10;99.90
31991;DHT22;18508;49.386;8.370;2024-03-08T01:19:59;5.20;99.90
31991;DHT22;18508;49.386;8.370;2024-03-08T01:25:03;4.90;99.90
31991;DHT22;18508;49.386;8.370;2024-03-08T01:27:37;5.00;99.90
31991;DHT22;18508;49.386;8.370;2024-03-08T01:30:10;4.90;99.90
31991;DHT22;18508;49.386;8.370;2024-03-08T01:35:16;5.10;99.90
31991;DHT22;18508;49.386;8.370;2024-03-08T01:37:48;4.90;99.90
31991;DHT22;18508;49.386;8.370;2024-03-08T01:40:18;4.70;99.90
31991;DHT22;18508;49.386;8.370;2024-03-08T01:42:51;4.80;99.90
31991;DHT22;18508;49.386;8.370;2024-03-08T01:45:26;4.70;99.90
31991;DHT22;18508;49.386;8.370;2024-03-08T01:47:55;4.70;99.90
31991;DHT22;18508;49.386;8.370;2024-03-08T01:50:27;4.70;99.90
31991;DHT22;18508;49.386;8.370;2024-03-08T01:53:01;4.70;99.90
31991;DHT22;18508;49.386;8.370;2024-03-08T01:55:36;4.70;99.90
31991;DHT22;18508;49.386;8.370;2024-03-08T01:58:10;4.60;99.90
31991;DHT22;18508;49.386;8.370;2024-03-08T02:00:40;4.60;99.90
31991;DHT22;18508;49.386;8.370;2024-03-08T02:03:13;4.60;99.90
31991;DHT22;18508;49.386;8.370;2024-03-08T02:08:17;4.60;99.90
31991;DHT22;18508;49.386;8.370;2024-03-08T02:10:46;4.60;99.90
31991;DHT22;18508;49.386;8.370;2024-03-08T02:13:18;4.50;99.90
31991;DHT22;18508;49.386;8.370;2024-03-08T02:15:52;4.50;99.90
31991;DHT22;18508;49.386;8.370;2024-03-08T02:18:24;4.50;99.90
31991;DHT22;18508;49.386;8.370;2024-03-08T02:21:00;5.30;99.90
31991;DHT22;18508;49.386;8.370;2024-03-08T02:23:33;4.40;99.90
31991;DHT22;18508;49.386;8.370;2024-03-08T02:26:10;4.50;99.90
31991;DHT22;18508;49.386;8.370;2024-03-08T02:28:39;4.40;99.90
31991;DHT22;18508;49.386;8.370;2024-03-08T02:36:14;4.20;99.90
31991;DHT22;18508;49.386;8.370;2024-03-08T02:38:43;4.30;99.90
31991;DHT22;18508;49.386;8.370;2024-03-08T02:41:14;4.50;99.90
31991;DHT22;18508;49.386;8.370;2024-03-08T02:43:46;4.20;99.90
31991;DHT22;18508;49.386;8.370;2024-03-08T02:46:18;4.20;99.90
31991;DHT22;18508;49.386;8.370;2024-03-08T02:48:48;4.20;99.90
31991;DHT22;18508;49.386;8.370;2024-03-08T02:51:21;4.10;99.90
31991;DHT22;18508;49.386;8.370;2024-03-08T02:56:23;4.10;99.90
31991;DHT22;18508;49.386;8.370;2024-03-08T02:58:52;4.20;99.90
31991;DHT22;18508;49.386;8.370;2024-03-08T03:01:28;4.10;99.90
31991;DHT22;18508;49.386;8.370;2024-03-08T03:06:28;3.90;99.90
31991;DHT22;18508;49.386;8.370;2024-03-08T03:08:59;3.90;99.90
31991;DHT22;18508;49.386;8.370;2024-03-08T03:11:30;4.00;99.90
31991;DHT22;18508;49.386;8.370;2024-03-08T03:14:01;3.90;99.90
31991;DHT22;18508;49.386;8.370;2024-03-08T03:16:30;3.90;99.90
31991;DHT22;18508;49.386;8.370;2024-03-08T03:18:58;3.90;99.90
31991;DHT22;18508;49.386;8.370;2024-03-08T03:21:32;3.80;99.90
31991;DHT22;18508;49.386;8.370;2024-03-08T03:26:38;3.80;99.90
31991;DHT22;18508;49.386;8.370;2024-03-08T03:31:46;3.80;99.90
31991;DHT22;18508;49.386;8.370;2024-03-08T03:36:50;3.80;99.90
31991;DHT22;18508;49.386;8.370;2024-03-08T03:39:22;3.70;99.90
31991;DHT22;18508;49.386;8.370;2024-03-08T03:41:57;4.00;99.90
31991;DHT22;18508;49.386;8.370;2024-03-08T03:44:28;3.70;99.90
31991;DHT22;18508;49.386;8.370;2024-03-08T03:49:29;3.70;99.90
31991;DHT22;18508;49.386;8.370;2024-03-08T03:52:00;3.90;99.90
31991;DHT22;18508;49.386;8.370;2024-03-08T03:54:30;3.70;99.90
31991;DHT22;18508;49.386;8.370;2024-03-08T03:57:00;3.80;99.90
31991;DHT22;18508;49.386;8.370;2024-03-08T03:59:32;3.70;99.90
31991;DHT22;18508;49.386;8.370;2024-03-08T04:02:05;3.60;99.90
31991;DHT22;18508;49.386;8.370;2024-03-08T04:07:06;3.90;99.90
31991;DHT22;18508;49.386;8.370;2024-03-08T04:09:42;3.60;99.90
31991;DHT22;18508;49.386;8.370;2024-03-08T04:12:12;3.40;99.90
31991;DHT22;18508;49.386;8.370;2024-03-08T04:14:42;3.50;99.90
31991;DHT22;18508;49.386;8.370;2024-03-08T04:17:11;3.40;99.90
31991;DHT22;18508;49.386;8.370;2024-03-08T04:19:44;3.50;99.90
31991;DHT22;18508;49.386;8.370;2024-03-08T04:22:17;3.50;99.90
31991;DHT22;18508;49.386;8.370;2024-03-08T04:24:47;3.20;99.90
31991;DHT22;18508;49.386;8.370;2024-03-08T04:27:16;3.50;99.90
31991;DHT22;18508;49.386;8.370;2024-03-08T04:29:48;3.50;99.90
31991;DHT22;18508;49.386;8.370;2024-03-08T04:32:23;3.50;99.90
31991;DHT22;18508;49.386;8.370;2024-03-08T04:34:54;1.00;99.90
31991;DHT22;18508;49.386;8.370;2024-03-08T04:37:27;3.50;99.90
31991;DHT22;18508;49.386;8.370;2024-03-08T04:39:57;3.70;99.90
31991;DHT22;18508;49.386;8.370;2024-03-08T04:42:27;3.50;99.90
31991;DHT22;18508;49.386;8.370;2024-03-08T04:44:57;3.40;99.90
31991;DHT22;18508;49.386;8.370;2024-03-08T04:47:27;3.40;99.90
31991;DHT22;18508;49.386;8.370;2024-03-08T04:49:58;3.60;99.90
31991;DHT22;18508;49.386;8.370;2024-03-08T04:52:33;3.20;99.90
31991;DHT22;18508;49.386;8.370;2024-03-08T04:55:06;3.30;1.00
31991;DHT22;18508;49.386;8.370;2024-03-08T04:57:39;3.30;99.90
31991;DHT22;18508;49.386;8.370;2024-03-08T05:00:10;3.30;99.90
31991;DHT22;18508;49.386;8.370;2024-03-08T05:02:40;3.30;99.90
31991;DHT22;18508;49.386;8.370;2024-03-08T05:07:41;3.10;99.90
31991;DHT22;18508;49.386;8.370;2024-03-08T05:10:16;3.20;99.90
31991;DHT22;18508;49.386;8.370;2024-03-08T05:12:45;3.20;99.90
31991;DHT22;18508;49.386;8.370;2024-03-08T05:15:14;3.20;99.90
31991;DHT22;18508;49.386;8.370;2024-03-08T05:17:43;3.20;99.90
31991;DHT22;18508;49.386;8.370;2024-03-08T05:22:43;3.20;99.90
31991;DHT22;18508;49.386;8.370;2024-03-08T05:25:13;3.50;1.00
31991;DHT22;18508;49.386;8.370;2024-03-08T05:27:42;3.40;1.00
31991;DHT22;18508;49.386;8.370;2024-03-08T05:30:12;3.10;1.00
31991;DHT22;18508;49.386;8.370;2024-03-08T05:32:43;3.20;99.90
31991;DHT22;18508;49.386;8.370;2024-03-08T05:35:15;3.20;99.90
31991;DHT22;18508;49.386;8.370;2024-03-08T05:37:49;3.20;99.90
31991;DHT22;18508;49.386;8.370;2024-03-08T05:40:28;3.00;1.00
31991;DHT22;18508;49.386;8.370;2024-03-08T05:42:59;3.10;99.90
31991;DHT22;18508;49.386;8.370;2024-03-08T05:45:28;3.10;1.00
31991;DHT22;18508;49.386;8.370;2024-03-08T05:47:57;2.90;1.00
31991;DHT22;18508;49.386;8.370;2024-03-08T05:50:26;2.70;1.00
31991;DHT22;18508;49.386;8.370;2024-03-08T05:52:57;3.00;99.90
31991;DHT22;18508;49.386;8.370;2024-03-08T05:55:25;3.00;99.90
31991;DHT22;18508;49.386;8.370;2024-03-08T05:57:57;3.00;99.90
31991;DHT22;18508;49.386;8.370;2024-03-08T06:00:31;2.90;1.00
31991;DHT22;18508;49.386;8.370;2024-03-08T06:03:03;3.00;99.90
31991;DHT22;18508;49.386;8.370;2024-03-08T06:05:32;3.10;99.90
31991;DHT22;18508;49.386;8.370;2024-03-08T06:08:08;2.90;99.90
31991;DHT22;18508;49.386;8.370;2024-03-08T06:10:43;3.10;99.90
31991;DHT22;18508;49.386;8.370;2024-03-08T06:13:13;2.80;99.90
31991;DHT22;18508;49.386;8.370;2024-03-08T06:15:43;3.00;99.90
31991;DHT22;18508;49.386;8.370;2024-03-08T06:20:50;3.20;99.90
31991;DHT22;18508;49.386;8.370;2024-03-08T06:23:24;3.20;99.90
31991;DHT22;18508;49.386;8.370;2024-03-08T06:25:56;3.40;99.90
31991;DHT22;18508;49.386;8.370;2024-03-08T06:33:33;3.30;99.90
31991;DHT22;18508;49.386;8.370;2024-03-08T06:38:43;3.30;99.90
31991;DHT22;18508;49.386;8.370;2024-03-08T06:41:14;3.30;99.90
31991;DHT22;18508;49.386;8.370;2024-03-08T06:43:45;3.30;99.90
31991;DHT22;18508;49.386;8.370;2024-03-08T06:46:16;3.50;99.90
31991;DHT22;18508;49.386;8.370;2024-03-08T06:48:50;3.30;99.90
31991;DHT22;18508;49.386;8.370;2024-03-08T06:51:23;3.40;99.90
31991;DHT22;18508;49.386;8.370;2024-03-08T06:53:55;3.40;99.90
31991;DHT22;18508;49.386;8.370;2024-03-08T06:56:25;3.40;99.90
31991;DHT22;18508;49.386;8.370;2024-03-08T06:58:58;3.60;99.90
31991;DHT22;18508;49.386;8.370;2024-03-08T07:03:55;3.50;99.90
31991;DHT22;18508;49.386;8.370;2024-03-08T07:06:25;3.60;99.90
31991;DHT22;18508;49.386;8.370;2024-03-08T07:08:57;3.60;99.90
31991;DHT22;18508;49.386;8.370;2024-03-08T07:11:27;3.50;99.90
31991;DHT22;18508;49.386;8.370;2024-03-08T07:13:59;3.70;99.90
31991;DHT22;18508;49.386;8.370;2024-03-08T07:16:35;3.80;99.90
31991;DHT22;18508;49.386;8.370;2024-03-08T07:19:05;3.80;99.90
31991;DHT22;18508;49.386;8.370;2024-03-08T07:21:37;4.10;99.90
31991;DHT22;18508;49.386;8.370;2024-03-08T07:24:08;3.90;99.90
31991;DHT22;18508;49.386;8.370;2024-03-08T07:26:55;4.10;99.90
31991;DHT22;18508;49.386;8.370;2024-03-08T07:29:24;4.00;99.90
31991;DHT22;18508;49.386;8.370;2024-03-08T07:31:53;4.10;99.90
31991;DHT22;18508;49.386;8.370;2024-03-08T07:34:35;4.20;99.90
31991;DHT22;18508;49.386;8.370;2024-03-08T07:37:13;4.20;99.90
31991;DHT22;18508;49.386;8.370;2024-03-08T07:39:47;4.30;99.90
31991;DHT22;18508;49.386;8.370;2024-03-08T07:42:16;4.40;99.90
31991;DHT22;18508;49.386;8.370;2024-03-08T07:44:48;4.40;99.90
31991;DHT22;18508;49.386;8.370;2024-03-08T07:47:17;4.20;99.90
31991;DHT22;18508;49.386;8.370;2024-03-08T07:49:51;4.50;99.90
31991;DHT22;18508;49.386;8.370;2024-03-08T07:52:26;4.50;99.90
31991;DHT22;18508;49.386;8.370;2024-03-08T07:54:56;4.80;99.90
31991;DHT22;18508;49.386;8.370;2024-03-08T07:57:28;4.60;99.90
31991;DHT22;18508;49.386;8.370;2024-03-08T08:00:00;4.70;99.90
31991;DHT22;18508;49.386;8.370;2024-03-08T08:02:34;5.10;99.90
31991;DHT22;18508;49.386;8.370;2024-03-08T08:05:09;4.90;99.90
31991;DHT22;18508;49.386;8.370;2024-03-08T08:07:38;5.00;99.90
31991;DHT22;18508;49.386;8.370;2024-03-08T08:10:12;5.00;99.90
31991;DHT22;18508;49.386;8.370;2024-03-08T08:12:45;5.00;99.90
31991;DHT22;18508;49.386;8.370;2024-03-08T08:15:18;5.40;99.90
31991;DHT22;18508;49.386;8.370;2024-03-08T08:17:48;5.00;99.90
31991;DHT22;18508;49.386;8.370;2024-03-08T08:20:18;5.20;99.90
31991;DHT22;18508;49.386;8.370;2024-03-08T08:22:52;5.20;99.90
31991;DHT22;18508;49.386;8.370;2024-03-08T08:25:24;5.60;99.90
31991;DHT22;18508;49.386;8.370;2024-03-08T08:28:01;5.50;99.90
31991;DHT22;18508;49.386;8.370;2024-03-08T08:30:31;5.20;99.90
31991;DHT22;18508;49.386;8.370;2024-03-08T08:33:01;5.30;99.90
31991;DHT22;18508;49.386;8.370;2024-03-08T08:35:33;5.50;99.90
31991;DHT22;18508;49.386;8.370;2024-03-08T08:38:02;5.70;99.90
31991;DHT22;18508;49.386;8.370;2024-03-08T08:40:33;5.70;98.90
31991;DHT22;18508;49.386;8.370;2024-03-08T08:43:05;5.80;98.00
31991;DHT22;18508;49.386;8.370;2024-03-08T08:45:37;5.90;95.70
31991;DHT22;18508;49.386;8.370;2024-03-08T08:48:06;5.90;99.90
31991;DHT22;18508;49.386;8.370;2024-03-08T08:50:39;6.90;94.30
31991;DHT22;18508;49.386;8.370;2024-03-08T08:55:46;5.90;79.00
31991;DHT22;18508;49.386;8.370;2024-03-08T08:58:32;6.10;95.20
31991;DHT22;18508;49.386;8.370;2024-03-08T09:01:08;6.00;77.20
31991;DHT22;18508;49.386;8.370;2024-03-08T09:03:45;9.50;99.90
31991;DHT22;18508;49.386;8.370;2024-03-08T09:06:14;8.80;99.90
31991;DHT22;18508;49.386;8.370;2024-03-08T09:08:44;6.10;99.90
31991;DHT22;18508;49.386;8.370;2024-03-08T09:11:16;6.20;74.00
31991;DHT22;18508;49.386;8.370;2024-03-08T09:18:54;6.60;93.90
31991;DHT22;18508;49.386;8.370;2024-03-08T09:21:25;6.80;99.90
31991;DHT22;18508;49.386;8.370;2024-03-08T09:23:54;6.90;99.90
31991;DHT22;18508;49.386;8.370;2024-03-08T09:26:23;6.80;80.70
31991;DHT22;18508;49.386;8.370;2024-03-08T09:28:55;6.80;78.80
31991;DHT22;18508;49.386;8.370;2024-03-08T09:31:24;6.80;78.40
31991;DHT22;18508;49.386;8.370;2024-03-08T09:33:52;7.20;99.90
31991;DHT22;18508;49.386;8.370;2024-03-08T09:38:52;7.00;59.90
31991;DHT22;18508;49.386;8.370;2024-03-08T09:41:20;6.80;82.40
31991;DHT22;18508;49.386;8.370;2024-03-08T09:43:51;6.80;71.90
31991;DHT22;18508;49.386;8.370;2024-03-08T09:46:22;7.00;99.90
31991;DHT22;18508;49.386;8.370;2024-03-08T09:48:51;6.80;73.60
31991;DHT22;18508;49.386;8.370;2024-03-08T09:51:22;7.00;73.80
31991;DHT22;18508;49.386;8.370;2024-03-08T09:54:03;7.20;73.20
31991;DHT22;18508;49.386;8.370;2024-03-08T09:56:43;7.40;71.90
31991;DHT22;18508;49.386;8.370;2024-03-08T09:59:14;7.30;88.50
31991;DHT22;18508;49.386;8.370;2024-03-08T10:02:13;7.10;69.00
31991;DHT22;18508;49.386;8.370;2024-03-08T10:04:43;7.30;70.50
31991;DHT22;18508;49.386;8.370;2024-03-08T10:07:14;7.20;70.60
31991;DHT22;18508;49.386;8.370;2024-03-08T10:09:42;7.20;99.90
31991;DHT22;18508;49.386;8.370;2024-03-08T10:12:17;7.20;69.20
31991;DHT22;18508;49.386;8.370;2024-03-08T10:14:48;7.40;67.00
31991;DHT22;18508;49.386;8.370;2024-03-08T10:17:16;7.20;99.90
31991;DHT22;18508;49.386;8.370;2024-03-08T10:19:51;7.30;94.60
31991;DHT22;18508;49.386;8.370;2024-03-08T10:22:20;7.30;65.70
31991;DHT22;18508;49.386;8.370;2024-03-08T10:24:48;7.20;64.40
31991;DHT22;18508;49.386;8.370;2024-03-08T10:27:17;7.50;64.30
31991;DHT22;18508;49.386;8.370;2024-03-08T10:29:48;7.10;63.90
31991;DHT22;18508;49.386;8.370;2024-03-08T10:32:19;7.40;56.00
31991;DHT22;18508;49.386;8.370;2024-03-08T10:34:50;7.40;66.70
31991;DHT22;18508;49.386;8.370;2024-03-08T10:37:21;7.40;63.30
31991;DHT22;18508;49.386;8.370;2024-03-08T10:40:02;7.30;56.20
31991;DHT22;18508;49.386;8.370;2024-03-08T10:42:40;7.40;63.90
31991;DHT22;18508;49.386;8.370;2024-03-08T10:45:15;7.50;64.20
31991;DHT22;18508;49.386;8.370;2024-03-08T10:47:57;7.40;63.00
31991;DHT22;18508;49.386;8.370;2024-03-08T10:50:33;7.80;54.00
31991;DHT22;18508;49.386;8.370;2024-03-08T10:53:03;7.70;53.10
31991;DHT22;18508;49.386;8.370;2024-03-08T10:55:33;7.60;53.00
31991;DHT22;18508;49.386;8.370;2024-03-08T10:58:05;7.70;61.60
31991;DHT22;18508;49.386;8.370;2024-03-08T11:00:36;8.00;61.20
31991;DHT22;18508;49.386;8.370;2024-03-08T11:03:05;8.00;59.90
31991;DHT22;18508;49.386;8.370;2024-03-08T11:05:37;8.10;49.30
31991;DHT22;18508;49.386;8.370;2024-03-08T11:08:18;8.00;88.10
31991;DHT22;18508;49.386;8.370;2024-03-08T11:10:49;8.10;64.60
31991;DHT22;18508;49.386;8.370;2024-03-08T11:13:33;8.60;48.20
31991;DHT22;18508;49.386;8.370;2024-03-08T11:16:15;8.70;47.80
31991;DHT22;18508;49.386;8.370;2024-03-08T11:19:28;8.30;41.90
31991;DHT22;18508;49.386;8.370;2024-03-08T11:22:03;8.80;42.50
31991;DHT22;18508;49.386;8.370;2024-03-08T11:24:39;8.90;41.90
31991;DHT22;18508;49.386;8.370;2024-03-08T11:27:13;9.20;41.50
31991;DHT22;18508;49.386;8.370;2024-03-08T11:32:21;9.60;41.00
31991;DHT22;18508;49.386;8.370;2024-03-08T11:37:28;9.00;99.90
31991;DHT22;18508;49.386;8.370;2024-03-08T11:42:28;8.50;59.10
31991;DHT22;18508;49.386;8.370;2024-03-08T11:45:07;8.60;67.70
31991;DHT22;18508;49.386;8.370;2024-03-08T11:47:41;8.50;33.70
31991;DHT22;18508;49.386;8.370;2024-03-08T11:50:14;8.60;51.80
31991;DHT22;18508;49.386;8.370;2024-03-08T11:52:44;9.10;63.20
31991;DHT22;18508;49.386;8.370;2024-03-08T11:55:12;9.00;52.20
31991;DHT22;18508;49.386;8.370;2024-03-08T11:57:41;9.10;47.90
31991;DHT22;18508;49.386;8.370;2024-03-08T12:00:16;9.00;46.80
31991;DHT22;18508;49.386;8.370;2024-03-08T12:03:04;9.20;47.60
31991;DHT22;18508;49.386;8.370;2024-03-08T12:05:33;9.50;49.00
31991;DHT22;18508;49.386;8.370;2024-03-08T12:08:04;9.60;47.20
31991;DHT22;18508;49.386;8.370;2024-03-08T12:10:37;9.40;48.50
31991;DHT22;18508;49.386;8.370;2024-03-08T12:13:07;9.50;45.50
31991;DHT22;18508;49.386;8.370;2024-03-08T12:15:40;9.70;47.30
31991;DHT22;18508;49.386;8.370;2024-03-08T12:18:12;9.80;46.20
31991;DHT22;18508;49.386;8.370;2024-03-08T12:20:42;10.00;46.10
31991;DHT22;18508;49.386;8.370;2024-03-08T12:23:17;10.10;45.10
31991;DHT22;18508;49.386;8.370;2024-03-08T12:25:47;10.30;44.90
31991;DHT22;18508;49.386;8.370;2024-03-08T12:28:15;10.40;43.50
31991;DHT22;18508;49.386;8.370;2024-03-08T12:30:46;10.40;43.30
31991;DHT22;18508;49.386;8.370;2024-03-08T12:33:17;10.40;44.10
31991;DHT22;18508;49.386;8.370;2024-03-08T12:35:55;10.40;42.00
31991;DHT22;18508;49.386;8.370;2024-03-08T12:38:27;10.60;40.50
31991;DHT22;18508;49.386;8.370;2024-03-08T12:40:59;10.80;42.70
31991;DHT22;18508;49.386;8.370;2024-03-08T12:45:59;11.10;42.50
31991;DHT22;18508;49.386;8.370;2024-03-08T12:48:43;10.90;40.90
31991;DHT22;18508;49.386;8.370;2024-03-08T12:51:14;10.80;39.60
31991;DHT22;18508;49.386;8.370;2024-03-08T12:53:43;11.10;38.80
31991;DHT22;18508;49.386;8.370;2024-03-08T12:58:42;11.10;25.20
31991;DHT22;18508;49.386;8.370;2024-03-08T13:01:10;11.30;28.80
31991;DHT22;18508;49.386;8.370;2024-03-08T13:03:39;11.30;38.70
31991;DHT22;18508;49.386;8.370;2024-03-08T13:06:09;11.60;38.40
31991;DHT22;18508;49.386;8.370;2024-03-08T13:11:07;11.70;25.00
31991;DHT22;18508;49.386;8.370;2024-03-08T13:16:09;11.50;24.00
31991;DHT22;18508;49.386;8.370;2024-03-08T13:18:45;11.60;23.30
31991;DHT22;18508;49.386;8.370;2024-03-08T13:21:24;11.50;83.60
31991;DHT22;18508;49.386;8.370;2024-03-08T13:31:29;11.30;22.20
31991;DHT22;18508;49.386;8.370;2024-03-08T13:33:58;11.50;33.90
31991;DHT22;18508;49.386;8.370;2024-03-08T13:36:28;12.00;29.90
31991;DHT22;18508;49.386;8.370;2024-03-08T13:39:12;11.90;34.20
31991;DHT22;18508;49.386;8.370;2024-03-08T13:41:43;11.50;31.80
31991;DHT22;18508;49.386;8.370;2024-03-08T13:44:12;11.60;32.00
31991;DHT22;18508;49.386;8.370;2024-03-08T13:46:40;11.40;30.40
31991;DHT22;18508;49.386;8.370;2024-03-08T13:49:09;11.70;32.40
31991;DHT22;18508;49.386;8.370;2024-03-08T13:51:42;12.00;32.90
31991;DHT22;18508;49.386;8.370;2024-03-08T13:54:10;11.80;26.60
31991;DHT22;18508;49.386;8.370;2024-03-08T13:56:38;11.90;31.30
31991;DHT22;18508;49.386;8.370;2024-03-08T13:59:06;12.10;31.10
31991;DHT22;18508;49.386;8.370;2024-03-08T14:01:36;12.20;31.20
31991;DHT22;18508;49.386;8.370;2024-03-08T14:04:04;12.40;46.50
31991;DHT22;18508;49.386;8.370;2024-03-08T14:06:35;12.40;31.40
31991;DHT22;18508;49.386;8.370;2024-03-08T14:09:04;12.60;29.90
31991;DHT22;18508;49.386;8.370;2024-03-08T14:11:34;12.80;29.90
31991;DHT22;18508;49.386;8.370;2024-03-08T14:14:03;12.90;31.50
31991;DHT22;18508;49.386;8.370;2024-03-08T14:16:31;13.10;30.10
31991;DHT22;18508;49.386;8.370;2024-03-08T14:19:00;13.00;28.60
31991;DHT22;18508;49.386;8.370;2024-03-08T14:21:32;13.10;28.30
31991;DHT22;18508;49.386;8.370;2024-03-08T14:24:01;13.10;21.50
31991;DHT22;18508;49.386;8.370;2024-03-08T14:26:30;13.00;27.90
31991;DHT22;18508;49.386;8.370;2024-03-08T14:28:59;13.20;27.20
31991;DHT22;18508;49.386;8.370;2024-03-08T14:31:28;13.30;20.50
31991;DHT22;18508;49.386;8.370;2024-03-08T14:36:25;13.70;16.50
31991;DHT22;18508;49.386;8.370;2024-03-08T14:42:43;13.90;14.70
31991;DHT22;18508;49.386;8.370;2024-03-08T14:45:12;13.90;24.70
31991;DHT22;18508;49.386;8.370;2024-03-08T14:47:40;13.80;24.10
31991;DHT22;18508;49.386;8.370;2024-03-08T14:50:09;14.10;23.90
31991;DHT22;18508;49.386;8.370;2024-03-08T14:52:40;14.40;23.50
31991;DHT22;18508;49.386;8.370;2024-03-08T14:55:09;14.30;22.80
31991;DHT22;18508;49.386;8.370;2024-03-08T14:57:46;14.60;23.10
31991;DHT22;18508;49.386;8.370;2024-03-08T15:00:15;14.80;22.20
31991;DHT22;18508;49.386;8.370;2024-03-08T15:02:53;14.70;21.20
31991;DHT22;18508;49.386;8.370;2024-03-08T15:05:22;15.00;20.70
31991;DHT22;18508;49.386;8.370;2024-03-08T15:07:54;15.00;20.40
31991;DHT22;18508;49.386;8.370;2024-03-08T15:10:23;15.30;20.70
31991;DHT22;18508;49.386;8.370;2024-03-08T15:12:55;15.30;18.10
31991;DHT22;18508;49.386;8.370;2024-03-08T15:15:26;14.80;17.20
31991;DHT22;18508;49.386;8.370;2024-03-08T15:17:56;14.90;16.90
31991;DHT22;18508;49.386;8.370;2024-03-08T15:20:25;15.20;17.00
31991;DHT22;18508;49.386;8.370;2024-03-08T15:22:57;15.40;16.80
31991;DHT22;18508;49.386;8.370;2024-03-08T15:25:26;15.80;17.20
31991;DHT22;18508;49.386;8.370;2024-03-08T15:27:56;15.50;15.60
31991;DHT22;18508;49.386;8.370;2024-03-08T15:30:25;16.00;17.10
31991;DHT22;18508;49.386;8.370;2024-03-08T15:32:56;15.70;15.30
31991;DHT22;18508;49.386;8.370;2024-03-08T15:35:26;15.80;15.60
31991;DHT22;18508;49.386;8.370;2024-03-08T15:37:55;15.80;14.90
31991;DHT22;18508;49.386;8.370;2024-03-08T15:40:25;16.00;14.10
31991;DHT22;18508;49.386;8.370;2024-03-08T15:42:58;16.00;13.90
31991;DHT22;18508;49.386;8.370;2024-03-08T15:45:26;15.60;13.00
31991;DHT22;18508;49.386;8.370;2024-03-08T15:47:54;15.60;13.00
31991;DHT22;18508;49.386;8.370;2024-03-08T15:50:23;15.60;12.80
31991;DHT22;18508;49.386;8.370;2024-03-08T15:52:51;15.50;12.40
31991;DHT22;18508;49.386;8.370;2024-03-08T15:55:21;15.90;12.70
31991;DHT22;18508;49.386;8.370;2024-03-08T15:57:51;15.40;11.10
31991;DHT22;18508;49.386;8.370;2024-03-08T16:00:22;15.40;11.30
31991;DHT22;18508;49.386;8.370;2024-03-08T16:03:00;14.80;9.60
31991;DHT22;18508;49.386;8.370;2024-03-08T16:05:33;14.20;8.80
31991;DHT22;18508;49.386;8.370;2024-03-08T16:08:01;13.50;1.00
31991;DHT22;18508;49.386;8.370;2024-03-08T16:10:30;13.50;9.20
31991;DHT22;18508;49.386;8.370;2024-03-08T16:13:00;13.20;8.10
31991;DHT22;18508;49.386;8.370;2024-03-08T16:15:32;12.80;8.40
31991;DHT22;18508;49.386;8.370;2024-03-08T16:18:02;12.70;7.60
31991;DHT22;18508;49.386;8.370;2024-03-08T16:20:32;12.50;7.80
31991;DHT22;18508;49.386;8.370;2024-03-08T16:23:00;12.10;1.00
31991;DHT22;18508;49.386;8.370;2024-03-08T16:25:29;12.10;7.90
31991;DHT22;18508;49.386;8.370;2024-03-08T16:27:57;12.10;7.90
31991;DHT22;18508;49.386;8.370;2024-03-08T16:30:25;12.00;8.40
31991;DHT22;18508;49.386;8.370;2024-03-08T16:32:56;11.90;7.60
31991;DHT22;18508;49.386;8.370;2024-03-08T16:35:24;11.80;7.40
31991;DHT22;18508;49.386;8.370;2024-03-08T16:37:52;11.70;9.40
31991;DHT22;18508;49.386;8.370;2024-03-08T16:40:20;11.90;2.70
31991;DHT22;18508;49.386;8.370;2024-03-08T16:42:49;11.70;8.50
31991;DHT22;18508;49.386;8.370;2024-03-08T16:45:19;11.70;8.20
31991;DHT22;18508;49.386;8.370;2024-03-08T16:47:48;11.50;9.20
31991;DHT22;18508;49.386;8.370;2024-03-08T16:50:19;11.40;8.20
31991;DHT22;18508;49.386;8.370;2024-03-08T16:52:49;11.40;9.40
31991;DHT22;18508;49.386;8.370;2024-03-08T16:55:24;11.30;8.70
31991;DHT22;18508;49.386;8.370;2024-03-08T16:57:52;11.20;9.30
31991;DHT22;18508;49.386;8.370;2024-03-08T17:00:22;11.10;9.70
31991;DHT22;18508;49.386;8.370;2024-03-08T17:02:54;10.90;10.70
31991;DHT22;18508;49.386;8.370;2024-03-08T17:05:26;10.80;9.60
31991;DHT22;18508;49.386;8.370;2024-03-08T17:07:56;10.70;9.50
31991;DHT22;18508;49.386;8.370;2024-03-08T17:10:25;10.70;9.80
31991;DHT22;18508;49.386;8.370;2024-03-08T17:12:54;10.40;8.80
31991;DHT22;18508;49.386;8.370;2024-03-08T17:15:26;10.50;22.40
31991;DHT22;18508;49.386;8.370;2024-03-08T17:17:56;10.70;9.90
31991;DHT22;18508;49.386;8.370;2024-03-08T17:20:28;10.40;12.40
31991;DHT22;18508;49.386;8.370;2024-03-08T17:22:58;10.40;11.70
31991;DHT22;18508;49.386;8.370;2024-03-08T17:25:29;10.40;11.80
31991;DHT22;18508;49.386;8.370;2024-03-08T17:27:58;10.20;11.00
31991;DHT22;18508;49.386;8.370;2024-03-08T17:30:29;10.10;11.40
31991;DHT22;18508;49.386;8.370;2024-03-08T17:33:00;10.00;11.30
31991;DHT22;18508;49.386;8.370;2024-03-08T17:35:32;9.90;11.70
31991;DHT22;18508;49.386;8.370;2024-03-08T17:38:02;9.80;11.40
31991;DHT22;18508;49.386;8.370;2024-03-08T17:40:36;9.70;12.00
31991;DHT22;18508;49.386;8.370;2024-03-08T17:43:07;9.60;11.70
31991;DHT22;18508;49.386;8.370;2024-03-08T17:45:40;9.50;12.40